createdAt,value
2019-05-09T00:01:14.973Z,99.90
2019-05-09T00:03:44.742Z,99.90
2019-05-09T00:06:14.277Z,99.90
2019-05-09T00:08:44.358Z,99.90
2019-05-09T00:11:14.811Z,99.90
2019-05-09T00:13:44.648Z,99.90
2019-05-09T00:16:14.764Z,99.90
2019-05-09T00:18:44.407Z,99.90
2019-05-09T00:21:25.074Z,99.90
2019-05-09T00:23:54.517Z,99.90
2019-05-09T00:26:24.349Z,99.90
2019-05-09T00:28:57.448Z,99.90
2019-05-09T00:31:46.320Z,99.90
2019-05-09T00:34:23.463Z,99.90
2019-05-09T00:36:53.994Z,99.90
2019-05-09T00:39:23.709Z,99.90
2019-05-09T00:41:53.926Z,99.90
2019-05-09T00:44:26.801Z,99.90
2019-05-09T00:47:05.182Z,99.90
2019-05-09T00:49:34.623Z,99.90
2019-05-09T00:52:04.028Z,99.90
2019-05-09T00:54:33.740Z,99.90
2019-05-09T00:57:03.342Z,99.90
2019-05-09T00:59:33.356Z,99.90
2019-05-09T01:02:03.959Z,99.90
2019-05-09T01:04:33.796Z,99.90
2019-05-09T01:07:03.587Z,99.90
2019-05-09T01:09:33.546Z,99.90
2019-05-09T01:12:03.979Z,99.70
2019-05-09T01:14:34.075Z,99.70
2019-05-09T01:17:04.328Z,99.80
2019-05-09T01:19:34.424Z,99.50
2019-05-09T01:22:03.962Z,99.30
2019-05-09T01:24:33.942Z,99.20
2019-05-09T01:27:03.805Z,99.20
2019-05-09T01:29:33.852Z,99.30
2019-05-09T01:32:06.100Z,98.80
2019-05-09T01:34:36.106Z,98.90
2019-05-09T01:37:10.573Z,99.50
2019-05-09T01:39:40.126Z,99.30
2019-05-09T01:42:09.586Z,99.70
2019-05-09T01:44:39.263Z,99.70
2019-05-09T01:47:08.989Z,99.80
2019-05-09T01:49:38.391Z,99.40
2019-05-09T01:52:07.821Z,99.80
2019-05-09T01:54:38.809Z,99.80
2019-05-09T01:57:08.636Z,99.80
2019-05-09T01:59:38.352Z,99.00
2019-05-09T02:02:09.021Z,99.00
2019-05-09T02:04:38.527Z,99.20
2019-05-09T02:07:07.956Z,99.60
2019-05-09T02:09:37.384Z,99.50
2019-05-09T02:12:06.816Z,99.60
2019-05-09T02:14:43.786Z,99.60
2019-05-09T02:17:33.471Z,99.90
2019-05-09T02:20:03.994Z,99.90
2019-05-09T02:22:34.437Z,99.90
2019-05-09T02:25:07.945Z,99.90
2019-05-09T02:27:37.515Z,99.90
2019-05-09T02:30:07.819Z,99.90
2019-05-09T02:32:37.308Z,99.90
2019-05-09T02:35:07.497Z,99.90
2019-05-09T02:37:38.967Z,99.90
2019-05-09T02:40:09.701Z,99.90
2019-05-09T02:42:39.915Z,99.90
2019-05-09T02:45:10.306Z,99.90
2019-05-09T02:47:39.773Z,99.90
2019-05-09T02:50:10.173Z,99.90
2019-05-09T02:52:40.165Z,99.60
2019-05-09T02:55:10.607Z,99.60
2019-05-09T02:57:40.371Z,99.90
2019-05-09T03:00:29.923Z,99.90
2019-05-09T03:03:08.939Z,99.90
2019-05-09T03:05:38.442Z,99.90
2019-05-09T03:08:09.338Z,99.90
2019-05-09T03:10:39.054Z,99.90
2019-05-09T03:13:09.437Z,99.90
2019-05-09T03:15:39.734Z,99.90
2019-05-09T03:18:09.442Z,99.90
2019-05-09T03:21:18.930Z,99.90
2019-05-09T03:23:48.945Z,99.90
2019-05-09T03:26:21.745Z,99.90
2019-05-09T03:29:09.022Z,99.90
2019-05-09T03:31:39.551Z,99.90
2019-05-09T03:34:10.025Z,99.90
2019-05-09T03:36:39.793Z,99.90
2019-05-09T03:39:10.586Z,99.90
2019-05-09T03:41:40.009Z,99.90
2019-05-09T03:44:09.737Z,99.60
2019-05-09T03:46:47.645Z,99.50
2019-05-09T03:49:18.022Z,99.60
2019-05-09T03:51:48.275Z,99.50
2019-05-09T03:54:18.488Z,99.40
2019-05-09T03:56:53.245Z,99.50
2019-05-09T03:59:22.975Z,99.60
2019-05-09T04:01:52.409Z,99.40
2019-05-09T04:04:21.999Z,99.70
2019-05-09T04:06:51.765Z,99.60
2019-05-09T04:09:21.199Z,99.50
2019-05-09T04:11:50.909Z,99.50
2019-05-09T04:14:24.069Z,99.50
2019-05-09T04:16:53.765Z,99.50
2019-05-09T04:19:23.205Z,99.40
2019-05-09T04:21:52.637Z,99.40
2019-05-09T04:24:23.119Z,99.20
2019-05-09T04:26:58.009Z,99.30
2019-05-09T04:29:28.582Z,99.10
2019-05-09T04:31:58.188Z,98.80
2019-05-09T04:34:27.703Z,97.20
2019-05-09T04:36:57.751Z,97.30
2019-05-09T04:39:28.356Z,97.50
2019-05-09T04:42:03.431Z,96.70
2019-05-09T04:44:34.892Z,94.10
2019-05-09T04:47:04.617Z,91.20
2019-05-09T04:49:41.095Z,90.10
2019-05-09T04:52:07.622Z,88.40
2019-05-09T04:54:38.438Z,88.50
2019-05-09T04:57:08.073Z,90.10
2019-05-09T04:59:37.817Z,90.50
2019-05-09T05:02:28.944Z,91.40
2019-05-09T05:04:58.704Z,90.10
2019-05-09T05:07:28.793Z,86.30
2019-05-09T05:09:58.748Z,81.50
2019-05-09T05:12:28.150Z,79.30
2019-05-09T05:14:58.138Z,79.40
2019-05-09T05:17:30.287Z,81.40
2019-05-09T05:19:59.329Z,83.30
2019-05-09T05:22:38.740Z,83.10
2019-05-09T05:25:09.301Z,83.30
2019-05-09T05:27:39.000Z,81.80
2019-05-09T05:30:08.950Z,79.60
2019-05-09T05:32:43.994Z,79.60
2019-05-09T05:35:19.743Z,80.70
2019-05-09T05:37:49.146Z,83.20
2019-05-09T05:40:18.896Z,83.60
2019-05-09T05:42:48.297Z,84.20
2019-05-09T05:45:18.269Z,84.10
2019-05-09T05:47:57.698Z,84.30
2019-05-09T05:50:28.199Z,83.00
2019-05-09T05:52:58.020Z,85.20
2019-05-09T05:55:27.724Z,85.20
2019-05-09T05:57:58.029Z,84.40
2019-05-09T06:00:28.533Z,85.40
2019-05-09T06:02:58.795Z,84.70
2019-05-09T06:05:28.307Z,84.30
2019-05-09T06:07:58.161Z,84.20
2019-05-09T06:10:29.016Z,84.50
2019-05-09T06:12:58.633Z,85.00
2019-05-09T06:15:28.767Z,85.00
2019-05-09T06:17:58.729Z,84.80
2019-05-09T06:20:28.325Z,84.60
2019-05-09T06:22:58.314Z,85.30
2019-05-09T06:25:30.598Z,84.50
2019-05-09T06:27:59.003Z,85.30
2019-05-09T06:30:29.860Z,85.00
2019-05-09T06:32:59.503Z,85.20
2019-05-09T06:35:29.013Z,84.90
2019-05-09T06:37:58.930Z,85.10
2019-05-09T06:40:29.583Z,86.00
2019-05-09T06:43:00.157Z,85.00
2019-05-09T06:45:45.342Z,85.40
2019-05-09T06:48:17.948Z,84.30
2019-05-09T06:50:48.361Z,85.00
2019-05-09T06:53:18.212Z,84.00
2019-05-09T06:55:48.130Z,83.30
2019-05-09T06:58:32.909Z,84.20
2019-05-09T07:01:31.265Z,82.30
2019-05-09T07:04:09.013Z,78.80
2019-05-09T07:06:45.051Z,74.80
2019-05-09T07:09:38.442Z,72.60
2019-05-09T07:12:08.266Z,70.80
2019-05-09T07:14:41.668Z,70.20
2019-05-09T07:17:09.656Z,71.40
2019-05-09T07:19:43.298Z,72.50
2019-05-09T07:22:32.573Z,71.70
2019-05-09T07:25:10.779Z,69.80
2019-05-09T07:27:39.177Z,70.70
2019-05-09T07:30:23.473Z,68.70
2019-05-09T07:32:59.404Z,68.70
2019-05-09T07:35:28.856Z,70.50
2019-05-09T07:37:58.313Z,69.60
2019-05-09T07:40:30.683Z,70.90
2019-05-09T07:42:59.863Z,71.90
2019-05-09T07:45:29.311Z,72.90
2019-05-09T07:47:58.903Z,75.60
2019-05-09T07:50:28.357Z,76.30
2019-05-09T07:52:58.301Z,74.90
2019-05-09T07:55:28.060Z,73.50
2019-05-09T07:57:59.053Z,75.30
2019-05-09T08:00:33.538Z,72.20
2019-05-09T08:03:03.138Z,70.10
2019-05-09T08:05:32.985Z,70.20
2019-05-09T08:08:02.412Z,69.80
2019-05-09T08:10:33.285Z,69.40
2019-05-09T08:13:03.163Z,68.70
2019-05-09T08:15:32.744Z,70.00
2019-05-09T08:18:02.242Z,68.80
2019-05-09T08:20:31.675Z,68.90
2019-05-09T08:23:02.319Z,66.30
2019-05-09T08:25:32.057Z,68.40
2019-05-09T08:28:01.809Z,67.20
2019-05-09T08:30:35.763Z,68.40
2019-05-09T08:33:02.944Z,71.00
2019-05-09T08:35:32.374Z,74.40
2019-05-09T08:38:01.835Z,76.60
2019-05-09T08:40:31.553Z,80.00
2019-05-09T08:43:01.323Z,81.80
2019-05-09T08:45:31.628Z,84.20
2019-05-09T08:48:01.512Z,86.30
2019-05-09T08:50:39.179Z,86.30
2019-05-09T08:53:08.812Z,87.40
2019-05-09T08:55:38.613Z,89.00
2019-05-09T08:58:08.256Z,86.10
2019-05-09T09:00:39.160Z,85.80
2019-05-09T09:03:08.761Z,87.30
2019-05-09T09:05:38.670Z,89.70
2019-05-09T09:08:08.592Z,90.10
2019-05-09T09:10:38.695Z,84.90
2019-05-09T09:13:09.126Z,85.40
2019-05-09T09:18:09.717Z,85.10
2019-05-09T09:20:39.161Z,85.30
2019-05-09T09:23:09.207Z,87.30
2019-05-09T09:25:39.258Z,83.70
2019-05-09T09:28:09.146Z,84.40
2019-05-09T09:30:39.077Z,82.20
2019-05-09T09:33:13.144Z,81.90
2019-05-09T09:35:39.618Z,82.50
2019-05-09T09:38:09.503Z,81.90
2019-05-09T09:40:39.053Z,83.30
2019-05-09T09:43:09.394Z,81.50
2019-05-09T09:45:39.208Z,82.30
2019-05-09T09:48:09.309Z,79.10
2019-05-09T09:50:39.084Z,82.50
2019-05-09T09:53:09.163Z,79.10
2019-05-09T09:55:38.860Z,77.30
2019-05-09T09:58:08.595Z,77.30
2019-05-09T10:00:58.232Z,77.50
2019-05-09T10:03:26.680Z,77.60
2019-05-09T10:05:57.781Z,76.10
2019-05-09T10:08:27.282Z,73.80
2019-05-09T10:10:59.032Z,75.60
2019-05-09T10:13:28.545Z,74.10
2019-05-09T10:16:27.508Z,72.00
2019-05-09T10:19:05.035Z,70.70
2019-05-09T10:21:38.279Z,71.60
2019-05-09T10:24:08.053Z,72.60
2019-05-09T10:26:40.951Z,70.40
2019-05-09T10:29:10.601Z,71.40
2019-05-09T10:31:40.065Z,69.70
2019-05-09T10:34:11.129Z,70.80
2019-05-09T10:36:40.689Z,69.80
2019-05-09T10:39:10.074Z,69.50
2019-05-09T10:41:39.746Z,68.10
2019-05-09T10:44:15.402Z,68.10
2019-05-09T10:47:01.973Z,66.40
2019-05-09T10:49:29.645Z,66.20
2019-05-09T10:51:59.069Z,63.60
2019-05-09T10:54:28.379Z,63.30
2019-05-09T10:56:58.132Z,61.10
2019-05-09T10:59:27.554Z,61.20
2019-05-09T11:01:57.966Z,62.00
2019-05-09T11:04:28.805Z,61.20
2019-05-09T11:06:58.442Z,58.20
2019-05-09T11:09:29.090Z,58.50
2019-05-09T11:12:01.275Z,58.10
2019-05-09T11:14:36.872Z,57.80
2019-05-09T11:17:10.858Z,59.40
2019-05-09T11:19:33.704Z,59.30
2019-05-09T11:22:03.518Z,59.50
2019-05-09T11:24:43.024Z,60.60
2019-05-09T11:27:03.995Z,60.20
2019-05-09T11:29:33.412Z,60.90
2019-05-09T11:32:03.094Z,62.50
2019-05-09T11:34:32.505Z,65.00
2019-05-09T11:37:01.930Z,68.50
2019-05-09T11:39:38.208Z,70.20
2019-05-09T11:42:02.414Z,69.80
2019-05-09T11:44:32.113Z,72.10
2019-05-09T11:47:01.854Z,77.40
2019-05-09T11:49:31.631Z,77.60
2019-05-09T11:52:01.329Z,79.00
2019-05-09T11:54:30.749Z,82.50
2019-05-09T11:57:00.861Z,84.30
2019-05-09T11:59:30.301Z,88.60
2019-05-09T12:01:59.704Z,90.10
2019-05-09T12:04:29.133Z,90.70
2019-05-09T12:06:59.349Z,90.60
2019-05-09T12:09:29.052Z,90.70
2019-05-09T12:11:59.202Z,90.70
2019-05-09T12:14:28.758Z,90.70
2019-05-09T12:16:58.202Z,90.20
2019-05-09T12:19:29.554Z,90.90
2019-05-09T12:21:59.473Z,90.70
2019-05-09T12:24:29.646Z,91.30
2019-05-09T12:27:02.909Z,91.30
2019-05-09T12:29:30.285Z,91.60
2019-05-09T12:31:59.840Z,92.10
2019-05-09T12:34:29.255Z,91.90
2019-05-09T12:36:58.729Z,92.30
2019-05-09T12:39:28.455Z,91.40
2019-05-09T12:41:58.052Z,91.80
2019-05-09T12:44:28.791Z,90.80
2019-05-09T12:46:58.650Z,91.70
2019-05-09T12:49:28.385Z,90.90
2019-05-09T12:51:58.544Z,90.50
2019-05-09T12:54:28.416Z,91.00
2019-05-09T12:56:59.175Z,90.70
2019-05-09T12:59:29.376Z,91.10
2019-05-09T13:02:00.352Z,90.50
2019-05-09T13:04:30.053Z,90.70
2019-05-09T13:07:00.223Z,90.30
2019-05-09T13:09:29.638Z,91.20
2019-05-09T13:11:59.471Z,90.80
2019-05-09T13:14:28.884Z,89.60
2019-05-09T13:17:10.227Z,89.80
2019-05-09T13:19:47.802Z,89.50
2019-05-09T13:22:18.473Z,89.30
2019-05-09T13:24:48.083Z,88.70
2019-05-09T13:27:18.897Z,90.50
2019-05-09T13:29:49.268Z,90.50
2019-05-09T13:32:19.058Z,91.40
2019-05-09T13:34:48.844Z,92.00
2019-05-09T13:37:18.901Z,91.00
2019-05-09T13:39:48.444Z,91.40
2019-05-09T13:42:19.654Z,91.90
2019-05-09T13:44:49.609Z,92.30
2019-05-09T13:47:19.082Z,92.00
2019-05-09T13:49:48.587Z,92.30
2019-05-09T13:52:18.168Z,91.30
2019-05-09T13:54:48.341Z,91.70
2019-05-09T13:57:18.920Z,91.40
2019-05-09T13:59:49.010Z,91.60
2019-05-09T14:02:19.004Z,92.00
2019-05-09T14:04:48.862Z,91.70
2019-05-09T14:07:19.270Z,91.30
2019-05-09T14:09:48.921Z,91.90
2019-05-09T14:12:18.382Z,92.40
2019-05-09T14:14:47.914Z,91.70
2019-05-09T14:17:19.004Z,92.30
2019-05-09T14:19:51.146Z,92.10
2019-05-09T14:22:20.135Z,90.40
2019-05-09T14:24:49.549Z,89.60
2019-05-09T14:27:19.578Z,86.20
2019-05-09T14:29:49.712Z,82.60
2019-05-09T14:32:19.331Z,82.40
2019-05-09T14:34:48.731Z,83.40
2019-05-09T14:37:18.233Z,84.60
2019-05-09T14:39:55.738Z,81.20
2019-05-09T14:42:19.003Z,80.60
2019-05-09T14:44:48.374Z,80.80
2019-05-09T14:47:17.868Z,81.80
2019-05-09T14:49:49.983Z,82.30
2019-05-09T14:52:18.686Z,82.30
2019-05-09T14:54:48.390Z,81.80
2019-05-09T14:57:17.818Z,80.90
2019-05-09T14:59:47.223Z,81.20
2019-05-09T15:02:17.936Z,82.30
2019-05-09T15:04:48.551Z,84.00
2019-05-09T15:07:19.385Z,85.40
2019-05-09T15:09:49.047Z,88.70
2019-05-09T15:12:18.662Z,87.70
2019-05-09T15:14:48.423Z,88.80
2019-05-09T15:17:18.476Z,90.00
2019-05-09T15:19:57.345Z,90.10
2019-05-09T15:22:19.331Z,91.10
2019-05-09T15:24:48.862Z,91.20
2019-05-09T15:27:18.299Z,91.50
2019-05-09T15:29:48.648Z,92.00
2019-05-09T15:32:18.439Z,91.90
2019-05-09T15:34:47.879Z,92.30
2019-05-09T15:37:18.612Z,91.60
2019-05-09T15:39:48.554Z,91.30
2019-05-09T15:42:18.646Z,90.20
2019-05-09T15:44:48.105Z,90.80
2019-05-09T15:47:21.873Z,90.70
2019-05-09T15:49:51.582Z,90.30
2019-05-09T15:52:21.004Z,89.40
2019-05-09T15:54:50.890Z,91.00
2019-05-09T15:57:20.684Z,91.30
2019-05-09T15:59:50.118Z,90.50
2019-05-09T16:02:19.593Z,90.50
2019-05-09T16:04:49.021Z,90.30
2019-05-09T16:07:18.449Z,90.60
2019-05-09T16:09:48.426Z,90.60
2019-05-09T16:12:18.482Z,91.20
2019-05-09T16:14:48.675Z,91.90
2019-05-09T16:17:19.133Z,92.60
2019-05-09T16:19:49.312Z,92.60
2019-05-09T16:22:19.226Z,93.50
2019-05-09T16:24:48.922Z,94.40
2019-05-09T16:27:21.107Z,93.40
2019-05-09T16:29:50.505Z,94.10
2019-05-09T16:32:20.219Z,94.10
2019-05-09T16:34:49.970Z,94.20
2019-05-09T16:37:19.412Z,95.30
2019-05-09T16:39:49.102Z,95.40
2019-05-09T16:42:18.606Z,94.60
2019-05-09T16:44:48.227Z,93.60
2019-05-09T16:47:21.728Z,92.90
2019-05-09T16:49:48.961Z,92.60
2019-05-09T16:52:20.075Z,93.30
2019-05-09T16:54:51.574Z,91.50
2019-05-09T16:57:21.257Z,91.60
2019-05-09T16:59:50.647Z,91.30
2019-05-09T17:02:24.768Z,91.20
2019-05-09T17:04:51.709Z,90.30
2019-05-09T17:07:21.266Z,87.80
2019-05-09T17:09:50.736Z,90.10
2019-05-09T17:12:20.718Z,90.70
2019-05-09T17:14:50.947Z,91.00
2019-05-09T17:17:20.334Z,91.80
2019-05-09T17:19:50.018Z,92.10
2019-05-09T17:23:08.328Z,91.10
2019-05-09T17:25:24.904Z,91.60
2019-05-09T17:27:56.920Z,91.60
2019-05-09T17:30:28.448Z,92.00
2019-05-09T17:32:58.379Z,92.20
2019-05-09T17:35:28.059Z,92.30
2019-05-09T17:37:57.461Z,92.40
2019-05-09T17:40:28.140Z,92.30
2019-05-09T17:42:59.128Z,91.90
2019-05-09T17:45:29.245Z,92.40
2019-05-09T17:47:58.663Z,92.30
2019-05-09T17:50:28.655Z,92.30
2019-05-09T17:52:58.224Z,92.80
2019-05-09T17:55:27.654Z,91.90
2019-05-09T17:57:58.673Z,92.30
2019-05-09T18:00:28.407Z,92.30
2019-05-09T18:02:58.066Z,92.60
2019-05-09T18:05:27.459Z,92.60
2019-05-09T18:07:57.887Z,93.00
2019-05-09T18:10:27.421Z,93.30
2019-05-09T18:12:58.823Z,93.40
2019-05-09T18:15:28.420Z,93.70
2019-05-09T18:17:58.597Z,93.20
2019-05-09T18:20:28.517Z,93.40
2019-05-09T18:22:58.611Z,93.50
2019-05-09T18:25:28.519Z,93.40
2019-05-09T18:27:57.914Z,93.90
2019-05-09T18:30:28.094Z,94.10
2019-05-09T18:33:03.026Z,94.10
2019-05-09T18:35:33.143Z,94.10
2019-05-09T18:38:02.951Z,94.10
2019-05-09T18:40:32.342Z,94.10
2019-05-09T18:43:01.715Z,94.80
2019-05-09T18:45:31.490Z,94.70
2019-05-09T18:48:01.160Z,94.80
2019-05-09T18:50:30.611Z,94.40
2019-05-09T18:53:00.069Z,94.10
2019-05-09T18:55:29.479Z,94.50
2019-05-09T18:57:58.850Z,94.90
2019-05-09T19:00:28.204Z,95.00
2019-05-09T19:02:57.669Z,94.80
2019-05-09T19:05:27.470Z,95.50
2019-05-09T19:07:56.828Z,95.60
2019-05-09T19:10:26.352Z,95.20
2019-05-09T19:12:55.835Z,95.20
2019-05-09T19:15:59.811Z,95.50
2019-05-09T19:18:56.933Z,95.60
2019-05-09T19:21:33.112Z,95.10
2019-05-09T19:24:02.497Z,95.70
2019-05-09T19:26:38.436Z,95.50
2019-05-09T19:29:09.140Z,96.00
2019-05-09T19:31:39.388Z,96.10
2019-05-09T19:34:09.045Z,96.10
2019-05-09T19:36:38.675Z,96.40
2019-05-09T19:39:12.104Z,96.70
2019-05-09T19:41:42.235Z,96.60
2019-05-09T19:44:11.660Z,96.30
2019-05-09T19:46:41.379Z,96.10
2019-05-09T19:49:11.490Z,96.10
2019-05-09T19:51:40.902Z,95.80
2019-05-09T19:54:10.896Z,95.50
2019-05-09T19:56:40.583Z,95.10
2019-05-09T19:59:10.044Z,94.90
2019-05-09T20:01:39.434Z,94.80
2019-05-09T20:04:08.919Z,94.90
2019-05-09T20:06:38.677Z,94.80
2019-05-09T20:09:13.543Z,94.60
2019-05-09T20:11:50.244Z,94.70
2019-05-09T20:14:25.996Z,94.90
2019-05-09T20:16:56.362Z,94.80
2019-05-09T20:19:25.870Z,94.70
2019-05-09T20:21:55.265Z,94.60
2019-05-09T20:24:24.917Z,95.00
2019-05-09T20:26:54.762Z,94.80
2019-05-09T20:29:24.120Z,95.10
2019-05-09T20:31:53.510Z,95.20
2019-05-09T20:34:22.905Z,95.50
2019-05-09T20:36:52.595Z,95.80
2019-05-09T20:39:22.136Z,96.00
2019-05-09T20:41:51.741Z,95.50
2019-05-09T20:44:21.592Z,95.60
2019-05-09T20:46:51.491Z,95.40
2019-05-09T20:49:21.106Z,95.60
2019-05-09T20:51:50.701Z,95.60
2019-05-09T20:54:21.577Z,95.70
2019-05-09T20:56:51.256Z,95.60
2019-05-09T20:59:21.178Z,95.80
2019-05-09T21:01:51.106Z,95.90
2019-05-09T21:04:20.704Z,95.90
2019-05-09T21:06:50.682Z,95.90
2019-05-09T21:09:20.324Z,95.70
2019-05-09T21:11:49.996Z,95.50
2019-05-09T21:14:19.591Z,95.20
2019-05-09T21:16:49.282Z,95.10
2019-05-09T21:19:18.866Z,94.90
2019-05-09T21:21:48.362Z,95.10
2019-05-09T21:24:18.172Z,95.30
2019-05-09T21:26:47.766Z,95.40
2019-05-09T21:29:17.912Z,95.50
2019-05-09T21:31:47.773Z,95.40
2019-05-09T21:34:18.337Z,95.30
2019-05-09T21:36:48.250Z,95.10
2019-05-09T21:39:17.928Z,95.20
2019-05-09T21:41:47.290Z,95.40
2019-05-09T21:44:16.711Z,95.30
2019-05-09T21:46:46.178Z,95.50
2019-05-09T21:49:15.918Z,95.30
2019-05-09T21:51:45.298Z,95.20
2019-05-09T21:54:15.081Z,95.20
2019-05-09T21:56:44.464Z,95.50
2019-05-09T21:59:13.874Z,95.40
2019-05-09T22:01:44.232Z,95.00
2019-05-09T22:04:13.652Z,94.50
2019-05-09T22:06:43.335Z,94.00
2019-05-09T22:09:12.939Z,93.50
2019-05-09T22:11:42.340Z,92.30
2019-05-09T22:14:12.086Z,91.70
2019-05-09T22:16:42.249Z,91.80
2019-05-09T22:19:11.684Z,91.10
2019-05-09T22:21:41.108Z,91.20
2019-05-09T22:24:10.512Z,91.40
2019-05-09T22:26:39.890Z,91.10
2019-05-09T22:29:09.311Z,91.40
2019-05-09T22:31:39.079Z,91.40
2019-05-09T22:34:08.517Z,91.60
2019-05-09T22:36:37.901Z,91.40
2019-05-09T22:39:08.247Z,92.00
2019-05-09T22:41:37.635Z,92.60
2019-05-09T22:44:07.025Z,93.50
2019-05-09T22:46:36.683Z,94.20
2019-05-09T22:49:06.094Z,94.80
2019-05-09T22:51:35.541Z,95.10
2019-05-09T22:54:12.628Z,95.60
2019-05-09T22:56:36.012Z,95.20
2019-05-09T22:59:05.421Z,94.50
2019-05-09T23:01:34.808Z,94.50
2019-05-09T23:04:04.316Z,94.60
2019-05-09T23:06:34.567Z,94.60
2019-05-09T23:09:05.363Z,94.30
2019-05-09T23:11:35.013Z,93.80
2019-05-09T23:14:04.536Z,93.50
2019-05-09T23:16:36.137Z,93.10
2019-05-09T23:19:05.560Z,92.80
2019-05-09T23:21:34.943Z,91.90
2019-05-09T23:24:09.677Z,91.20
2019-05-09T23:26:39.094Z,91.10
2019-05-09T23:29:08.550Z,91.00
2019-05-09T23:31:45.836Z,91.00
2019-05-09T23:34:15.243Z,90.90
2019-05-09T23:36:44.619Z,91.30
2019-05-09T23:39:20.448Z,91.80
2019-05-09T23:41:49.949Z,92.00
2019-05-09T23:44:19.365Z,92.30
2019-05-09T23:46:48.741Z,92.50
2019-05-09T23:49:18.658Z,92.30
2019-05-09T23:51:50.795Z,92.50
2019-05-09T23:54:47.566Z,92.60
2019-05-09T23:57:28.237Z,92.30
